»·PEaware :: XSR412 KFUL-KGCN

XSR412 :: KFUL-KGCN

FLIGHT INFORMATION

Flight Status: Arrived
Operator: Unknown
More flights by this operator :: More flights under this callsign
Pilot: David S. (6552)
Aircraft: EMBRAER PHENOM 300
(E55P)
More flights by this aircraft type
Origin: KFUL Fullerton Mun
United States
Destination: KGCN Grand Canyon Natl Park
United States
More flights between these airports :: More routes between these airports
Route: PDZ V442 HEC J64 GCN
File this flight plan on PilotEdge
Remarks:
Altitude:
(Current/Filed)
27,000ft
Speed:
(Current/Filed)
430kts
Departed: 04-Oct-21 05:24 PM
Arrived: 04-Oct-21 06:22 PM
Distance/Time
Traveled:
313nm/0:58
Distance/Time
To Go:
Arrived

Flight Plot

Page will automatically refresh every two minutes.

Flight plan parsing failed; only flown route is shown


Map Options




Map Legend


Flown Route
Filed Route
Departure Airport
Arrival Airport
Navaid (VOR, NDB)
Fix

Horizontal Profiles

Position Reports

Time Latitude Longitude Heading Altitude Ground
Speed
04-Oct-21 17:00 33.871416 -117.978649 256 96ft 0kts
04-Oct-21 17:01 33.871416 -117.978649 256 96ft 0kts
04-Oct-21 17:02 33.871416 -117.978649 256 96ft 0kts
04-Oct-21 17:03 33.871416 -117.978649 256 96ft 0kts
04-Oct-21 17:04 33.871416 -117.978649 256 96ft 0kts
04-Oct-21 17:05 33.871416 -117.978649 256 96ft 0kts
04-Oct-21 17:06 33.871416 -117.978649 256 96ft 0kts
04-Oct-21 17:07 33.871416 -117.978649 256 96ft 0kts
04-Oct-21 17:08 33.871416 -117.978649 256 96ft 0kts
04-Oct-21 17:09 33.871416 -117.978649 256 96ft 0kts
04-Oct-21 17:10 33.871416 -117.978649 256 96ft 0kts
04-Oct-21 17:11 33.871416 -117.978649 256 96ft 0kts
04-Oct-21 17:12 33.871416 -117.978649 256 96ft 0kts
04-Oct-21 17:13 33.871416 -117.978649 256 96ft 0kts
04-Oct-21 17:14 33.871416 -117.978649 256 96ft 0kts
04-Oct-21 17:15 33.871416 -117.978649 256 96ft 0kts
04-Oct-21 17:16 33.871416 -117.978649 256 96ft 0kts
04-Oct-21 17:17 33.871416 -117.978649 256 96ft 0kts
04-Oct-21 17:18 33.871416 -117.978649 256 96ft 0kts
04-Oct-21 17:19 33.871416 -117.978649 256 96ft 0kts
04-Oct-21 17:20 33.871416 -117.978649 256 96ft 0kts
04-Oct-21 17:21 33.872050 -117.977315 89 98ft 11kts
04-Oct-21 17:21 33.872535 -117.974968 76 100ft 0kts
04-Oct-21 17:23 33.872904 -117.975289 259 100ft 0kts
04-Oct-21 17:24 33.869025 -117.994906 254 604ft 143kts
04-Oct-21 17:24 33.837424 -117.985371 131 1993ft 212kts
04-Oct-21 17:25 33.833551 -117.922322 71 4318ft 190kts
04-Oct-21 17:26 33.847152 -117.861653 75 8085ft 193kts
04-Oct-21 17:28 33.863399 -117.786984 79 11995ft 208kts
04-Oct-21 17:28 33.875601 -117.730038 79 14662ft 217kts
04-Oct-21 17:29 33.890900 -117.658585 80 17664ft 227kts
04-Oct-21 17:30 33.906894 -117.583726 80 20429ft 237kts
04-Oct-21 17:31 33.940551 -117.516642 31 22838ft 273kts
04-Oct-21 17:32 34.014967 -117.472014 31 24699ft 309kts
04-Oct-21 17:33 34.093571 -117.424790 31 26876ft 322kts
04-Oct-21 17:34 34.179696 -117.372852 30 26973ft 370kts
04-Oct-21 17:35 34.277194 -117.314001 30 26985ft 410kts
04-Oct-21 17:36 34.382868 -117.250050 30 27011ft 438kts
04-Oct-21 17:37 34.495118 -117.181910 30 27026ft 457kts
04-Oct-21 17:38 34.575660 -117.072986 69 27047ft 447kts
04-Oct-21 17:39 34.627194 -116.933468 70 27005ft 458kts
04-Oct-21 17:40 34.678760 -116.791434 71 26982ft 455kts
04-Oct-21 17:41 34.729822 -116.649973 71 26983ft 457kts
04-Oct-21 17:42 34.780605 -116.508685 71 26984ft 453kts
04-Oct-21 17:43 34.826243 -116.365458 74 26989ft 454kts
04-Oct-21 17:44 34.869176 -116.221543 75 27028ft 451kts
04-Oct-21 17:45 34.912222 -116.076512 74 27045ft 452kts
04-Oct-21 17:46 34.954420 -115.933448 74 27037ft 447kts
04-Oct-21 17:47 34.996195 -115.790393 74 27039ft 447kts
04-Oct-21 17:48 35.037548 -115.648060 73 27041ft 445kts
04-Oct-21 17:49 35.078944 -115.504943 73 26996ft 445kts
04-Oct-21 17:50 35.119937 -115.362472 73 26976ft 444kts
04-Oct-21 17:51 35.161039 -115.218830 74 26943ft 445kts
04-Oct-21 17:52 35.201797 -115.075801 74 26924ft 450kts
04-Oct-21 17:53 35.243236 -114.929439 75 26924ft 458kts
04-Oct-21 17:54 35.284585 -114.782613 75 26924ft 455kts
04-Oct-21 17:55 35.325799 -114.635517 75 26925ft 458kts
04-Oct-21 17:56 35.366898 -114.488086 75 26925ft 455kts
04-Oct-21 17:57 35.407632 -114.341148 75 27011ft 457kts
04-Oct-21 17:58 35.448377 -114.193393 75 27098ft 456kts
04-Oct-21 17:59 35.488800 -114.045997 75 27100ft 456kts
04-Oct-21 18:00 35.529333 -113.897408 75 27102ft 449kts
04-Oct-21 18:01 35.566897 -113.758922 75 24484ft 415kts
04-Oct-21 18:02 35.602234 -113.627964 75 21482ft 393kts
04-Oct-21 18:03 35.634471 -113.503775 76 18766ft 369kts
04-Oct-21 18:04 35.662498 -113.387200 76 16232ft 333kts
04-Oct-21 18:05 35.687433 -113.282898 76 13744ft 310kts
04-Oct-21 18:06 35.710867 -113.184545 76 11365ft 293kts
04-Oct-21 18:07 35.733350 -113.089609 74 9686ft 277kts
04-Oct-21 18:08 35.754787 -112.999063 74 8853ft 269kts
04-Oct-21 18:09 35.776232 -112.908067 74 8934ft 283kts
04-Oct-21 18:10 35.798262 -112.814194 74 8989ft 284kts
04-Oct-21 18:11 35.819880 -112.721717 74 8999ft 276kts
04-Oct-21 18:12 35.840575 -112.632921 74 8998ft 261kts
04-Oct-21 18:13 35.859819 -112.549929 74 8997ft 241kts
04-Oct-21 18:14 35.877638 -112.472856 74 8998ft 227kts
04-Oct-21 18:15 35.894806 -112.398366 74 8999ft 223kts
04-Oct-21 18:16 35.900294 -112.324335 90 8502ft 190kts
04-Oct-21 18:17 35.895879 -112.262975 95 8498ft 172kts
04-Oct-21 18:18 35.896999 -112.210674 62 8117ft 146kts
04-Oct-21 18:19 35.924020 -112.176721 42 7240ft 132kts
04-Oct-21 18:20 35.949750 -112.149894 40 6603ft 74kts
04-Oct-21 18:21 35.952157 -112.145393 39 6603ft 16kts
04-Oct-21 18:22 35.954244 -112.142485 41 6603ft 0kts
04-Oct-21 18:23 35.954244 -112.142486 41 6603ft 0kts

Navigation Log

Ident Type
Flight plan parsing failed, navigation log unavailable